Time;durP1;ratioP1;P1;durP2;ratioP2;P2;SDS_P1;SDS_P2;PMS_P1;PMS_P2;Temp;Humidity;BMP_temperature;BMP_pressure;BME280_temperature;BME280_humidity;BME280_pressure;Samples;Min_cycle;Max_cycle;Signal;HPM_P1;HPM_P2
2022/08/09 00:00:27;;;;;;;3.37;2.90;;;19.90;1.00;;;;;;5088788;28;20189;-55
2022/08/09 00:02:53;;;;;;;4.57;2.80;;;19.90;1.00;;;;;;5083607;28;20507;-55
2022/08/09 00:05:20;;;;;;;3.17;2.87;;;19.80;1.00;;;;;;5086967;28;20277;-56
2022/08/09 00:07:46;;;;;;;2.90;2.47;;;19.70;1.00;;;;;;5086834;28;20222;-56
2022/08/09 00:10:12;;;;;;;2.80;2.60;;;19.70;1.00;;;;;;5090023;28;20562;-55
2022/08/09 00:12:37;;;;;;;3.40;3.00;;;19.60;1.00;;;;;;5090990;28;20179;-56
2022/08/09 00:15:03;;;;;;;7.33;2.73;;;19.70;1.00;;;;;;5089177;28;20187;-56
2022/08/09 00:17:29;;;;;;;2.83;2.60;;;19.50;1.00;;;;;;5082111;28;20196;-57
2022/08/09 00:19:54;;;;;;;5.00;3.00;;;19.50;1.00;;;;;;5089043;28;20197;-56
2022/08/09 00:22:20;;;;;;;4.00;2.40;;;19.40;1.00;;;;;;5088001;28;20183;-56
2022/08/09 00:24:46;;;;;;;3.13;2.83;;;19.40;1.00;;;;;;5089523;28;20608;-55
2022/08/09 00:27:11;;;;;;;3.80;2.90;;;19.30;1.00;;;;;;5087400;28;20226;-55
2022/08/09 00:29:37;;;;;;;3.50;3.10;;;19.30;1.00;;;;;;5088973;28;20533;-57
2022/08/09 00:32:03;;;;;;;4.30;3.20;;;19.20;1.00;;;;;;5087919;28;20187;-56
2022/08/09 00:34:29;;;;;;;3.00;2.70;;;19.20;1.00;;;;;;5088205;28;20217;-55
2022/08/09 00:36:54;;;;;;;5.30;2.60;;;19.20;1.00;;;;;;5071189;28;20977;-56
2022/08/09 00:39:21;;;;;;;3.37;3.10;;;19.10;1.00;;;;;;5089240;28;20187;-56
2022/08/09 00:41:48;;;;;;;3.40;2.80;;;19.10;1.00;;;;;;5086894;28;20182;-56
2022/08/09 00:44:14;;;;;;;5.33;3.07;;;19.10;1.00;;;;;;5089422;28;20486;-56
2022/08/09 00:46:42;;;;;;;3.40;2.90;;;19.00;1.00;;;;;;5088346;28;20794;-55
2022/08/09 00:49:08;;;;;;;3.93;2.80;;;19.10;1.00;;;;;;5089228;28;20433;-56
2022/08/09 00:51:34;;;;;;;5.13;2.80;;;19.00;1.00;;;;;;5086780;28;20445;-57
2022/08/09 00:54:00;;;;;;;3.00;2.67;;;19.00;1.00;;;;;;5085918;28;20914;-55
2022/08/09 00:56:25;;;;;;;5.10;3.50;;;18.90;1.00;;;;;;5088872;28;20457;-55
2022/08/09 00:58:51;;;;;;;3.00;2.80;;;18.90;1.00;;;;;;5070124;28;20201;-56
2022/08/09 01:01:26;;;;;;;5.60;2.70;;;18.80;1.00;;;;;;5088278;28;20521;-56
2022/08/09 01:03:54;;;;;;;4.00;3.17;;;18.90;1.00;;;;;;5090019;28;20651;-58
2022/08/09 01:06:28;;;;;;;2.90;2.53;;;18.90;1.00;;;;;;5087413;28;20452;-55
2022/08/09 01:09:02;;;;;;;3.30;3.00;;;18.90;1.00;;;;;;5068273;28;20456;-57
2022/08/09 01:11:57;;;;;;;3.57;3.30;;;18.70;1.00;;;;;;5087137;28;20555;-56
2022/08/09 01:14:38;;;;;;;4.10;2.97;;;18.70;1.00;;;;;;5042009;28;20444;-55
2022/08/09 01:17:10;;;;;;;4.57;2.97;;;18.70;1.00;;;;;;5083093;28;20802;-55
2022/08/09 01:19:35;;;;;;;3.10;2.80;;;18.70;1.00;;;;;;5089063;28;20779;-56
2022/08/09 01:22:35;;;;;;;5.40;3.30;;;18.70;1.00;;;;;;5084902;28;20455;-55
2022/08/09 01:25:15;;;;;;;4.30;3.37;;;18.70;1.00;;;;;;5088144;28;20197;-56
2022/08/09 01:27:42;;;;;;;4.77;3.40;;;18.70;1.00;;;;;;5087669;28;20463;-56
2022/08/09 01:30:09;;;;;;;4.20;3.80;;;18.70;1.00;;;;;;5092890;28;20460;-56
2022/08/09 01:32:44;;;;;;;3.60;3.30;;;18.60;1.00;;;;;;5091366;28;20444;-55
2022/08/09 01:35:27;;;;;;;3.77;3.40;;;18.60;1.00;;;;;;5092568;28;20436;-55
2022/08/09 01:37:57;;;;;;;3.83;3.30;;;18.60;1.00;;;;;;5091332;28;20686;-55
2022/08/09 01:40:24;;;;;;;3.50;3.20;;;18.60;1.00;;;;;;5093119;28;20459;-56
2022/08/09 01:42:51;;;;;;;4.30;3.37;;;18.60;1.00;;;;;;5090543;28;20448;-56
2022/08/09 01:45:19;;;;;;;3.50;3.20;;;18.50;1.00;;;;;;5092640;28;20440;-56
2022/08/09 01:47:46;;;;;;;3.80;3.40;;;18.50;1.00;;;;;;5090382;28;20451;-56
2022/08/09 01:50:12;;;;;;;3.67;3.23;;;18.50;1.00;;;;;;5091203;28;20468;-54
2022/08/09 01:52:40;;;;;;;5.33;3.80;;;18.40;1.00;;;;;;5091508;28;20445;-55
2022/08/09 01:55:09;;;;;;;3.73;3.43;;;18.30;1.00;;;;;;5090853;28;20440;-56
2022/08/09 01:57:39;;;;;;;3.80;3.33;;;18.30;1.00;;;;;;5074936;28;20432;-56
2022/08/09 02:00:08;;;;;;;3.97;3.67;;;18.20;1.00;;;;;;5090195;28;20907;-54
2022/08/09 02:02:39;;;;;;;4.50;4.10;;;18.20;1.00;;;;;;5088690;28;20512;-57
2022/08/09 02:05:08;;;;;;;4.07;3.67;;;18.20;1.00;;;;;;5073041;28;20448;-55
2022/08/09 02:07:40;;;;;;;3.57;3.30;;;18.20;1.00;;;;;;5091100;28;20444;-56
2022/08/09 02:10:15;;;;;;;3.77;3.40;;;18.10;1.00;;;;;;5089525;28;20965;-56
2022/08/09 02:12:44;;;;;;;4.40;4.00;;;18.10;1.00;;;;;;5091223;28;20448;-55
2022/08/09 02:15:13;;;;;;;3.90;3.60;;;18.10;1.00;;;;;;5089345;28;20447;-56
2022/08/09 02:17:41;;;;;;;3.60;3.30;;;18.10;1.00;;;;;;5090196;28;20441;-55
2022/08/09 02:20:08;;;;;;;4.20;3.53;;;18.10;1.00;;;;;;5087892;28;20455;-56
2022/08/09 02:22:42;;;;;;;3.97;3.57;;;18.00;1.00;;;;;;5090524;28;20551;-54
2022/08/09 02:25:16;;;;;;;4.13;3.63;;;18.00;1.00;;;;;;5090083;28;20476;-55
2022/08/09 02:27:48;;;;;;;4.20;3.80;;;17.90;1.00;;;;;;5091497;28;20917;-56
2022/08/09 02:30:14;;;;;;;3.17;2.97;;;18.00;1.00;;;;;;5089579;28;20852;-55
2022/08/09 02:32:44;;;;;;;4.30;3.90;;;18.00;1.00;;;;;;5091106;28;20448;-56
2022/08/09 02:35:20;;;;;;;4.63;4.17;;;17.90;1.00;;;;;;5090461;28;21177;-56
2022/08/09 02:37:48;;;;;;;4.40;4.00;;;17.90;1.00;;;;;;5089177;28;20551;-56
2022/08/09 02:40:17;;;;;;;4.70;3.80;;;17.80;1.00;;;;;;5090830;28;20456;-55
2022/08/09 02:42:46;;;;;;;4.80;4.20;;;17.70;1.00;;;;;;5091413;28;21032;-56
2022/08/09 02:45:31;;;;;;;5.10;4.63;;;17.70;1.00;;;;;;5092627;28;20444;-56
2022/08/09 02:48:02;;;;;;;4.53;3.60;;;17.70;1.00;;;;;;5084327;28;20521;-56
2022/08/09 02:50:38;;;;;;;3.87;3.47;;;17.70;1.00;;;;;;5086349;28;20506;-55
2022/08/09 02:53:10;;;;;;;4.10;3.70;;;17.80;1.00;;;;;;5091700;28;20448;-55
2022/08/09 02:55:39;;;;;;;4.10;3.80;;;17.70;1.00;;;;;;5089004;28;20445;-56
2022/08/09 02:58:07;;;;;;;4.50;4.13;;;17.70;1.00;;;;;;5091527;28;20836;-55
2022/08/09 03:00:33;;;;;;;3.80;3.50;;;17.70;1.00;;;;;;5085092;28;20452;-55
2022/08/09 03:02:59;;;;;;;4.50;3.70;;;17.70;1.00;;;;;;5071450;28;20452;-54
2022/08/09 03:05:26;;;;;;;4.03;3.73;;;17.60;1.00;;;;;;5089668;28;20480;-55
2022/08/09 03:07:54;;;;;;;3.80;3.50;;;17.50;1.00;;;;;;5091958;28;20439;-56
2022/08/09 03:10:20;;;;;;;4.80;4.30;;;17.50;1.00;;;;;;5090281;28;20484;-56
2022/08/09 03:12:48;;;;;;;8.13;4.13;;;17.50;1.00;;;;;;5089070;28;20455;-55
2022/08/09 03:15:14;;;;;;;4.37;3.60;;;17.50;1.00;;;;;;5088902;28;20453;-57
2022/08/09 03:17:42;;;;;;;5.27;4.30;;;17.40;1.00;;;;;;5091212;28;20542;-56
2022/08/09 03:20:09;;;;;;;5.80;3.80;;;17.40;1.00;;;;;;5088005;28;20464;-55
2022/08/09 03:22:37;;;;;;;4.03;3.63;;;17.40;1.00;;;;;;5090583;28;20975;-56
2022/08/09 03:25:03;;;;;;;9.73;3.60;;;17.30;1.00;;;;;;5089646;28;20575;-56
2022/08/09 03:27:31;;;;;;;4.27;3.80;;;17.20;1.00;;;;;;5089498;28;20577;-56
2022/08/09 03:29:57;;;;;;;5.87;4.07;;;17.30;1.00;;;;;;5089030;28;20628;-55
2022/08/09 03:32:24;;;;;;;4.17;3.87;;;17.30;1.00;;;;;;5089834;28;21257;-56
2022/08/09 03:34:49;;;;;;;4.77;4.23;;;17.30;1.00;;;;;;5084893;28;20576;-56
2022/08/09 03:37:15;;;;;;;5.00;4.60;;;17.30;1.00;;;;;;5088490;28;20589;-55
2022/08/09 03:39:41;;;;;;;4.10;3.33;;;17.20;1.00;;;;;;5089548;28;20198;-56
2022/08/09 03:42:06;;;;;;;4.90;4.40;;;17.30;1.00;;;;;;5088590;28;20201;-56
2022/08/09 03:44:32;;;;;;;4.00;3.60;;;17.30;1.00;;;;;;5089709;28;20187;-56
2022/08/09 03:46:57;;;;;;;5.27;4.00;;;17.30;1.00;;;;;;5089888;28;20186;-56
2022/08/09 03:49:26;;;;;;;6.00;4.37;;;17.30;1.00;;;;;;5087952;28;20210;-55
2022/08/09 03:51:57;;;;;;;5.20;3.93;;;17.30;1.00;;;;;;5092152;28;20191;-56
2022/08/09 03:54:25;;;;;;;3.77;3.47;;;17.20;1.00;;;;;;5087268;28;20444;-56
2022/08/09 03:56:52;;;;;;;4.70;4.30;;;17.20;1.00;;;;;;5088934;28;20464;-55
2022/08/09 03:59:19;;;;;;;4.93;4.17;;;17.20;1.00;;;;;;5087876;28;20449;-56
2022/08/09 04:01:45;;;;;;;4.90;3.93;;;17.20;1.00;;;;;;5089374;28;20942;-60
2022/08/09 04:04:12;;;;;;;6.30;4.10;;;17.10;1.00;;;;;;5086306;28;20444;-57
2022/08/09 04:06:38;;;;;;;4.30;3.90;;;17.20;1.00;;;;;;5089107;28;20457;-58
2022/08/09 04:09:05;;;;;;;5.10;3.87;;;17.20;1.00;;;;;;5089509;28;20440;-58
2022/08/09 04:11:49;;;;;;;5.50;4.20;;;17.20;1.00;;;;;;5088162;28;20477;-59
2022/08/09 04:14:16;;;;;;;5.30;4.33;;;17.20;1.00;;;;;;5090182;28;20457;-58
2022/08/09 04:16:42;;;;;;;4.77;4.37;;;17.20;1.00;;;;;;5087777;28;20444;-58
2022/08/09 04:19:08;;;;;;;6.83;3.57;;;17.20;1.00;;;;;;5090038;28;20437;-58
2022/08/09 04:21:33;;;;;;;6.13;3.93;;;17.30;1.00;;;;;;5087839;28;20197;-58
2022/08/09 04:23:59;;;;;;;4.67;4.20;;;17.30;1.00;;;;;;5088628;28;20232;-58
2022/08/09 04:26:25;;;;;;;3.83;3.53;;;17.30;1.00;;;;;;5070852;28;20286;-58
2022/08/09 04:28:50;;;;;;;6.23;4.30;;;17.40;1.00;;;;;;5088615;28;20248;-58
2022/08/09 04:31:16;;;;;;;4.63;3.83;;;17.40;1.00;;;;;;5088043;28;20207;-58
2022/08/09 04:33:41;;;;;;;6.40;4.80;;;17.40;1.00;;;;;;5089708;28;20182;-57
2022/08/09 04:36:07;;;;;;;6.13;4.77;;;17.50;1.00;;;;;;5088388;28;20586;-58
2022/08/09 04:38:33;;;;;;;5.40;5.00;;;17.50;1.00;;;;;;5089240;28;20179;-55
2022/08/09 04:40:58;;;;;;;7.30;5.10;;;17.50;1.00;;;;;;5087939;28;20194;-57
2022/08/09 04:43:24;;;;;;;4.00;3.70;;;17.50;1.00;;;;;;5087668;28;20618;-57
2022/08/09 04:45:50;;;;;;;4.97;4.57;;;17.60;1.00;;;;;;5086105;28;20260;-56
2022/08/09 04:48:15;;;;;;;5.70;4.77;;;17.70;1.00;;;;;;5086928;28;20455;-57
2022/08/09 04:50:41;;;;;;;4.80;4.40;;;17.70;1.00;;;;;;5088528;28;20206;-57
2022/08/09 04:53:09;;;;;;;6.40;4.50;;;17.80;1.00;;;;;;5087881;28;20595;-57
2022/08/09 04:55:36;;;;;;;5.53;4.83;;;17.70;1.00;;;;;;5088078;28;20486;-57
2022/08/09 04:58:02;;;;;;;5.43;4.20;;;17.70;1.00;;;;;;5088665;28;20843;-58
2022/08/09 05:00:28;;;;;;;6.30;4.00;;;17.80;1.00;;;;;;5087849;28;20540;-57
2022/08/09 05:02:55;;;;;;;6.30;5.07;;;17.70;1.00;;;;;;5087582;28;20202;-56
2022/08/09 05:05:22;;;;;;;6.37;4.83;;;17.80;1.00;;;;;;5087775;28;20456;-57
2022/08/09 05:07:47;;;;;;;4.90;4.50;;;17.70;1.00;;;;;;5088959;28;20488;-57
2022/08/09 05:10:13;;;;;;;5.83;4.20;;;17.80;1.00;;;;;;5086250;28;20500;-56
2022/08/09 05:12:39;;;;;;;5.03;4.40;;;17.80;1.00;;;;;;5086988;28;20713;-58
2022/08/09 05:15:06;;;;;;;4.87;4.27;;;17.90;1.00;;;;;;5087223;28;20456;-57
2022/08/09 05:17:32;;;;;;;5.10;4.60;;;18.00;1.00;;;;;;5087517;28;20441;-56
2022/08/09 05:19:57;;;;;;;6.70;4.00;;;18.10;1.00;;;;;;5085846;28;20455;-57
2022/08/09 05:22:23;;;;;;;5.43;4.03;;;18.10;1.00;;;;;;5087654;28;20186;-57
2022/08/09 05:24:49;;;;;;;6.83;4.80;;;18.10;1.00;;;;;;5088743;28;20202;-55
2022/08/09 05:27:15;;;;;;;5.93;4.90;;;18.40;1.00;;;;;;5089239;28;20327;-56
2022/08/09 05:29:40;;;;;;;6.43;4.87;;;18.50;1.00;;;;;;5088013;28;20495;-57
2022/08/09 05:32:06;;;;;;;5.80;4.60;;;18.60;1.00;;;;;;5089003;28;20183;-56
2022/08/09 05:34:32;;;;;;;7.47;5.10;;;18.60;1.00;;;;;;5088301;28;20187;-57
2022/08/09 05:37:02;;;;;;;4.87;4.47;;;18.70;1.00;;;;;;5087287;28;20524;-55
2022/08/09 05:39:28;;;;;;;4.90;4.47;;;18.80;1.00;;;;;;5087937;28;20230;-56
2022/08/09 05:41:53;;;;;;;4.93;4.40;;;19.00;1.00;;;;;;5088655;28;20525;-57
2022/08/09 05:44:19;;;;;;;5.53;4.27;;;19.30;1.00;;;;;;5088924;28;20199;-56
2022/08/09 05:46:45;;;;;;;6.50;4.57;;;19.40;1.00;;;;;;5089117;28;20182;-56
2022/08/09 05:49:10;;;;;;;5.43;4.90;;;19.60;1.00;;;;;;5088710;28;20182;-56
2022/08/09 05:51:36;;;;;;;8.83;4.90;;;19.60;1.00;;;;;;5086825;28;20207;-56
2022/08/09 05:54:02;;;;;;;6.10;4.50;;;;;;;;;;5088513;28;20540;-56
2022/08/09 05:56:28;;;;;;;7.10;5.10;;;19.80;1.00;;;;;;5089100;28;20183;-57
2022/08/09 05:58:56;;;;;;;5.87;4.20;;;19.90;1.00;;;;;;5087614;28;20457;-57
2022/08/09 06:01:27;;;;;;;6.87;4.40;;;20.00;1.00;;;;;;5085777;28;20194;-58
2022/08/09 06:03:53;;;;;;;7.30;4.60;;;20.20;1.00;;;;;;5087311;28;20463;-57
2022/08/09 06:06:19;;;;;;;6.90;4.30;;;20.30;1.00;;;;;;5086937;28;20447;-55
2022/08/09 06:08:44;;;;;;;8.53;4.80;;;20.30;1.00;;;;;;5088885;28;20444;-57
2022/08/09 06:11:10;;;;;;;5.10;4.00;;;20.50;1.00;;;;;;5088407;28;20817;-56
2022/08/09 06:13:37;;;;;;;5.43;4.70;;;20.60;1.00;;;;;;5092465;28;20201;-57
2022/08/09 06:16:03;;;;;;;5.00;4.53;;;20.90;1.00;;;;;;5073033;28;20428;-56
2022/08/09 06:18:28;;;;;;;7.27;4.37;;;20.90;1.00;;;;;;5091652;28;20816;-56
2022/08/09 06:20:55;;;;;;;5.53;4.40;;;21.00;1.00;;;;;;5091314;28;20598;-58
2022/08/09 06:23:22;;;;;;;6.30;3.97;;;21.20;1.00;;;;;;5090135;28;20195;-57
2022/08/09 06:25:48;;;;;;;4.10;3.77;;;21.30;1.00;;;;;;5091057;28;20456;-56
2022/08/09 06:28:14;;;;;;;4.73;4.00;;;21.40;1.00;;;;;;5091858;28;20463;-56
2022/08/09 06:30:41;;;;;;;6.37;4.40;;;21.40;1.00;;;;;;5092360;28;20562;-56
2022/08/09 06:33:07;;;;;;;4.30;3.90;;;21.30;1.00;;;;;;5090800;28;20194;-57
2022/08/09 06:35:32;;;;;;;5.17;4.00;;;21.40;1.00;;;;;;5091182;28;20449;-57
2022/08/09 06:37:58;;;;;;;4.00;3.70;;;21.60;1.00;;;;;;5090387;28;20485;-58
2022/08/09 06:40:23;;;;;;;5.60;4.33;;;21.60;1.00;;;;;;5090761;28;21009;-57
2022/08/09 06:42:49;;;;;;;7.73;4.13;;;21.70;1.00;;;;;;5090927;28;20648;-56
2022/08/09 06:45:15;;;;;;;4.57;4.17;;;21.90;1.00;;;;;;5070058;28;20198;-57
2022/08/09 06:47:40;;;;;;;4.20;3.80;;;22.00;1.00;;;;;;5092393;28;20632;-56
2022/08/09 06:50:07;;;;;;;4.23;3.80;;;22.00;1.00;;;;;;5092480;28;20282;-57
2022/08/09 06:52:33;;;;;;;8.37;5.23;;;22.30;1.00;;;;;;5090978;28;20183;-57
2022/08/09 06:54:58;;;;;;;5.97;4.07;;;22.40;1.00;;;;;;5090127;28;20447;-56
2022/08/09 06:57:24;;;;;;;6.33;3.80;;;22.50;1.00;;;;;;5091473;28;20191;-58
2022/08/09 06:59:50;;;;;;;4.00;3.70;;;22.80;1.00;;;;;;5090730;28;20198;-56
2022/08/09 07:02:15;;;;;;;8.13;3.90;;;22.90;1.00;;;;;;5090611;28;20196;-57
2022/08/09 07:04:41;;;;;;;16.60;5.23;;;22.60;1.00;;;;;;5091383;28;20248;-58
2022/08/09 07:07:06;;;;;;;4.53;3.90;;;22.70;1.00;;;;;;5089921;28;20528;-56
2022/08/09 07:09:32;;;;;;;5.10;4.60;;;23.00;1.00;;;;;;5090968;28;20179;-56
2022/08/09 07:11:58;;;;;;;10.47;4.87;;;23.30;1.00;;;;;;5090015;28;20190;-58
2022/08/09 07:14:24;;;;;;;5.50;4.23;;;23.40;1.00;;;;;;5091167;28;20441;-58
2022/08/09 07:16:49;;;;;;;5.60;3.77;;;23.60;1.00;;;;;;5091393;28;20211;-57
2022/08/09 07:19:15;;;;;;;4.80;4.40;;;23.80;1.00;;;;;;5089935;28;20183;-58
2022/08/09 07:21:42;;;;;;;6.03;4.83;;;24.00;1.00;;;;;;5089155;28;20240;-58
2022/08/09 07:24:08;;;;;;;5.67;4.77;;;24.20;1.00;;;;;;5088505;28;20546;-57
2022/08/09 07:26:34;;;;;;;7.00;5.23;;;24.30;1.00;;;;;;5091052;28;20433;-58
2022/08/09 07:29:00;;;;;;;5.33;4.73;;;24.40;1.00;;;;;;5089893;28;20441;-57
2022/08/09 07:31:25;;;;;;;4.73;4.23;;;24.40;1.00;;;;;;5089336;28;20202;-57
2022/08/09 07:33:51;;;;;;;4.17;3.87;;;24.30;1.00;;;;;;5091507;28;20551;-58
2022/08/09 07:36:17;;;;;;;4.40;3.87;;;24.30;1.00;;;;;;5091183;28;20253;-57
2022/08/09 07:38:42;;;;;;;4.30;4.00;;;24.20;1.00;;;;;;5090850;28;20181;-57
2022/08/09 07:41:08;;;;;;;7.10;3.87;;;24.10;1.00;;;;;;5090486;28;20303;-57
2022/08/09 07:43:34;;;;;;;5.20;4.07;;;24.10;1.00;;;;;;5089978;28;20232;-57
2022/08/09 07:46:00;;;;;;;5.03;3.40;;;24.10;1.00;;;;;;5091247;28;21010;-57
2022/08/09 07:48:26;;;;;;;5.93;3.90;;;24.20;1.00;;;;;;5089358;28;20187;-57
2022/08/09 07:50:52;;;;;;;7.23;3.93;;;24.60;1.00;;;;;;5088387;28;20894;-57
2022/08/09 07:53:17;;;;;;;5.00;4.00;;;24.70;1.00;;;;;;5089781;28;20653;-57
2022/08/09 07:55:43;;;;;;;5.33;3.20;;;24.70;1.00;;;;;;5085249;28;20195;-57
2022/08/09 07:58:08;;;;;;;3.63;3.33;;;24.70;1.00;;;;;;5087776;28;20197;-56
2022/08/09 08:00:34;;;;;;;3.33;3.03;;;24.80;1.00;;;;;;5089896;28;20213;-58
2022/08/09 08:03:01;;;;;;;3.60;2.87;;;24.90;1.00;;;;;;5090179;28;20293;-57
2022/08/09 08:05:27;;;;;;;4.83;3.80;;;25.00;1.00;;;;;;5089820;28;20210;-58
2022/08/09 08:07:53;;;;;;;4.43;3.10;;;25.40;1.00;;;;;;5088054;28;20462;-58
2022/08/09 08:10:20;;;;;;;5.60;3.10;;;25.90;1.00;;;;;;5087704;28;20487;-58
2022/08/09 08:12:46;;;;;;;3.40;2.70;;;26.30;1.00;;;;;;5088608;28;20946;-57
2022/08/09 08:15:15;;;;;;;3.10;2.80;;;26.60;1.00;;;;;;5089615;28;20483;-57
2022/08/09 08:17:41;;;;;;;8.67;3.40;;;26.90;1.00;;;;;;5089789;28;20262;-58
2022/08/09 08:20:07;;;;;;;2.50;2.30;;;27.00;1.00;;;;;;5089549;28;20477;-58
2022/08/09 08:22:33;;;;;;;3.40;3.10;;;27.00;1.00;;;;;;5087764;28;21021;-58
2022/08/09 08:24:58;;;;;;;3.40;2.60;;;27.10;1.00;;;;;;5088265;28;20461;-58
2022/08/09 08:27:25;;;;;;;4.50;2.70;;;27.20;1.00;;;;;;5087289;28;20294;-58
2022/08/09 08:29:52;;;;;;;2.47;2.27;;;27.20;1.00;;;;;;5086868;28;20207;-57
2022/08/09 08:32:19;;;;;;;2.60;2.40;;;27.30;1.00;;;;;;5088896;28;20444;-58
2022/08/09 08:34:45;;;;;;;2.30;2.10;;;27.30;1.00;;;;;;5088260;28;20445;-58
2022/08/09 08:37:16;;;;;;;3.13;2.83;;;27.40;1.00;;;;;;5090058;28;20947;-57
2022/08/09 08:39:42;;;;;;;3.23;2.80;;;27.60;1.00;;;;;;5087814;28;20507;-57
2022/08/09 08:42:08;;;;;;;4.87;2.90;;;27.50;1.00;;;;;;5090573;28;20536;-58
2022/08/09 08:44:37;;;;;;;3.67;2.53;;;27.30;1.00;;;;;;5090579;28;20267;-58
2022/08/09 08:47:03;;;;;;;2.63;2.43;;;27.00;1.00;;;;;;5090268;28;20892;-57
2022/08/09 08:49:31;;;;;;;6.77;6.07;;;27.30;1.00;;;;;;5090136;28;20437;-58
2022/08/09 08:51:57;;;;;;;4.47;3.03;;;27.70;1.00;;;;;;5090241;28;20479;-57
2022/08/09 08:54:23;;;;;;;3.07;2.30;;;27.80;1.00;;;;;;5090220;28;20653;-59
2022/08/09 08:56:49;;;;;;;3.27;2.10;;;27.80;1.00;;;;;;5090610;28;20429;-61
2022/08/09 08:59:15;;;;;;;4.40;2.17;;;27.90;1.00;;;;;;5090171;28;20182;-59
2022/08/09 09:01:43;;;;;;;3.40;2.50;;;27.70;1.00;;;;;;5090127;28;20443;-60
2022/08/09 09:04:11;;;;;;;5.83;2.60;;;27.50;1.00;;;;;;5090259;28;20432;-60
2022/08/09 09:06:40;;;;;;;4.10;2.37;;;27.60;1.00;;;;;;5089852;28;20774;-60
2022/08/09 09:09:07;;;;;;;4.50;2.37;;;27.90;1.00;;;;;;5090117;28;20448;-61
2022/08/09 09:11:36;;;;;;;3.30;2.33;;;27.90;1.00;;;;;;5089944;28;20460;-59
2022/08/09 09:14:15;;;;;;;4.20;2.23;;;27.90;1.00;;;;;;5090040;28;20464;-60
2022/08/09 09:16:41;;;;;;;5.40;2.23;;;28.10;1.00;;;;;;5089771;28;20436;-61
2022/08/09 09:19:09;;;;;;;2.53;2.30;;;28.10;1.00;;;;;;5089796;28;20437;-61
2022/08/09 09:21:34;;;;;;;3.47;1.90;;;27.70;1.00;;;;;;5089688;28;20296;-60
2022/08/09 09:24:05;;;;;;;5.17;2.33;;;27.90;1.00;;;;;;5089710;28;20846;-60
2022/08/09 09:26:33;;;;;;;4.60;2.20;;;28.00;1.00;;;;;;5089645;28;20195;-60
2022/08/09 09:29:00;;;;;;;3.40;2.10;;;28.10;1.00;;;;;;5088347;28;20832;-60
2022/08/09 09:31:26;;;;;;;5.10;2.53;;;28.10;1.00;;;;;;5089572;28;20476;-60
2022/08/09 09:34:08;;;;;;;3.80;2.57;;;28.40;1.00;;;;;;5089866;28;20429;-60
2022/08/09 09:36:39;;;;;;;3.33;1.93;;;28.80;1.00;;;;;;5089599;28;20464;-59
2022/08/09 09:39:08;;;;;;;3.80;2.47;;;28.90;1.00;;;;;;5089826;28;20994;-60
2022/08/09 09:41:34;;;;;;;5.83;2.80;;;29.10;1.00;;;;;;5089776;28;20445;-60
2022/08/09 09:44:05;;;;;;;4.20;2.60;;;29.30;1.00;;;;;;5089880;28;20552;-59
2022/08/09 09:46:33;;;;;;;2.80;2.60;;;29.20;1.00;;;;;;5090828;28;20524;-60
2022/08/09 09:49:08;;;;;;;3.70;2.40;;;28.80;1.00;;;;;;5093695;28;20519;-60
2022/08/09 09:51:36;;;;;;;3.30;2.83;;;28.50;1.00;;;;;;5093046;28;20471;-58
2022/08/09 09:54:09;;;;;;;4.97;2.40;;;28.60;1.00;;;;;;5093789;28;20434;-60
2022/08/09 09:56:43;;;;;;;5.80;2.77;;;28.80;1.00;;;;;;5093510;28;20444;-58
2022/08/09 09:59:11;;;;;;;2.00;1.80;;;28.90;1.00;;;;;;5093545;28;20507;-60
2022/08/09 10:01:38;;;;;;;3.30;2.37;;;29.10;1.00;;;;;;5092610;28;20535;-59
2022/08/09 10:04:12;;;;;;;3.90;2.33;;;29.20;1.00;;;;;;5093271;28;20397;-60
2022/08/09 10:06:40;;;;;;;2.97;2.70;;;29.50;1.00;;;;;;5093535;28;20455;-60
2022/08/09 10:09:07;;;;;;;3.07;2.10;;;29.50;1.00;;;;;;5092798;28;21207;-60
2022/08/09 10:11:34;;;;;;;4.20;1.90;;;29.10;1.00;;;;;;5092522;28;20471;-60
2022/08/09 10:14:00;;;;;;;3.40;2.60;;;29.00;1.00;;;;;;5092838;28;20500;-60
2022/08/09 10:16:32;;;;;;;4.07;1.90;;;29.20;1.00;;;;;;5092717;28;20433;-61
2022/08/09 10:19:04;;;;;;;2.60;2.27;;;28.90;1.00;;;;;;5093010;28;20952;-59
2022/08/09 10:21:29;;;;;;;2.63;2.20;;;28.90;1.00;;;;;;5092871;28;20450;-60
2022/08/09 10:23:59;;;;;;;4.03;2.37;;;28.90;1.00;;;;;;5092909;28;20433;-59
2022/08/09 10:26:25;;;;;;;4.67;2.60;;;28.90;1.00;;;;;;5093212;28;20175;-59
2022/08/09 10:28:52;;;;;;;4.90;2.37;;;28.50;1.00;;;;;;5092996;28;21018;-59
2022/08/09 10:31:19;;;;;;;3.40;2.17;;;28.30;1.00;;;;;;5092811;28;20465;-60
2022/08/09 10:33:45;;;;;;;4.27;2.70;;;28.40;1.00;;;;;;5093005;28;20423;-59
2022/08/09 10:36:13;;;;;;;7.07;2.50;;;28.50;1.00;;;;;;5092442;28;20464;-60
2022/08/09 10:38:41;;;;;;;2.50;2.17;;;28.30;1.00;;;;;;5092677;28;20433;-60
2022/08/09 10:41:10;;;;;;;4.03;1.97;;;28.30;1.00;;;;;;5092271;28;20444;-61
2022/08/09 10:43:42;;;;;;;8.60;2.50;;;28.70;1.00;;;;;;5092195;28;20448;-61
2022/08/09 10:46:49;;;;;;;2.33;1.90;;;29.00;1.00;;;;;;5092326;28;20455;-60
2022/08/09 10:49:40;;;;;;;3.70;2.40;;;29.70;1.00;;;;;;5092339;28;20532;-59
2022/08/09 10:52:33;;;;;;;3.23;2.43;;;29.90;1.00;;;;;;5092319;28;20997;-60
2022/08/09 10:55:28;;;;;;;2.43;2.23;;;29.80;1.00;;;;;;5092481;28;20773;-61
2022/08/09 10:57:55;;;;;;;4.77;2.27;;;30.20;1.00;;;;;;5092476;28;20461;-60
2022/08/09 11:00:38;;;;;;;3.43;2.30;;;30.40;1.00;;;;;;5092043;28;20444;-60
2022/08/09 11:03:19;;;;;;;3.57;2.50;;;30.60;1.00;;;;;;5092519;28;20433;-59
2022/08/09 11:06:21;;;;;;;3.67;2.30;;;30.50;1.00;;;;;;5092365;28;20435;-60
2022/08/09 11:08:48;;;;;;;2.77;2.47;;;30.50;1.00;;;;;;5092440;28;21004;-60
2022/08/09 11:11:17;;;;;;;5.90;2.87;;;30.80;1.00;;;;;;5091882;28;20465;-62
2022/08/09 11:13:44;;;;;;;3.53;2.20;;;31.20;1.00;;;;;;5091356;28;20448;-60
2022/08/09 11:16:32;;;;;;;3.57;2.50;;;31.10;1.00;;;;;;5090752;28;20445;-61
2022/08/09 11:18:58;;;;;;;2.57;1.97;;;30.80;1.00;;;;;;5091851;28;20662;-60
2022/08/09 11:21:56;;;;;;;6.43;2.50;;;30.60;1.00;;;;;;5092383;28;20519;-60
2022/08/09 11:24:21;;;;;;;3.57;2.03;;;30.50;1.00;;;;;;5091550;28;20247;-61
2022/08/09 11:26:49;;;;;;;4.03;2.60;;;29.90;1.00;;;;;;5073738;28;20436;-60
2022/08/09 11:29:53;;;;;;;2.37;2.17;;;29.60;1.00;;;;;;5090976;28;20206;-59
2022/08/09 11:32:41;;;;;;;2.43;2.23;;;29.50;1.00;;;;;;5091783;28;20432;-60
2022/08/09 11:35:24;;;;;;;3.60;2.40;;;29.50;1.00;;;;;;5091703;28;20482;-60
2022/08/09 11:37:52;;;;;;;2.40;2.20;;;29.50;1.00;;;;;;5091441;28;20533;-61
2022/08/09 11:40:30;;;;;;;4.20;2.10;;;29.80;1.00;;;;;;5091627;28;20438;-60
2022/08/09 11:42:59;;;;;;;3.00;1.97;;;30.20;1.00;;;;;;5091761;28;20433;-61
2022/08/09 11:45:39;;;;;;;4.73;2.00;;;30.50;1.00;;;;;;5091146;28;20436;-60
2022/08/09 11:48:29;;;;;;;2.80;2.50;;;30.80;1.00;;;;;;5091720;28;20440;-60
2022/08/09 11:51:00;;;;;;;2.47;2.27;;;31.40;1.00;;;;;;5072887;28;20487;-62
2022/08/09 11:53:34;;;;;;;2.00;1.83;;;31.00;1.00;;;;;;5090866;28;20523;-59
2022/08/09 11:56:27;;;;;;;3.73;1.90;;;30.80;1.00;;;;;;5039939;28;20519;-61
2022/08/09 11:58:58;;;;;;;2.17;2.07;;;31.00;1.00;;;;;;5091553;28;20821;-59
2022/08/09 12:01:32;;;;;;;3.90;2.10;;;30.80;1.00;;;;;;5090867;28;20802;-59
2022/08/09 12:04:03;;;;;;;2.93;2.17;;;30.80;1.00;;;;;;5091301;28;20451;-61
2022/08/09 12:06:31;;;;;;;3.10;2.33;;;30.70;1.00;;;;;;5091248;28;20437;-61
2022/08/09 12:08:57;;;;;;;3.93;2.33;;;30.70;1.00;;;;;;5090786;28;20802;-61
2022/08/09 12:11:25;;;;;;;3.10;2.10;;;30.70;1.00;;;;;;5090881;28;20467;-61
2022/08/09 12:13:54;;;;;;;3.03;2.07;;;31.20;1.00;;;;;;5091020;28;20545;-61
2022/08/09 12:16:28;;;;;;;4.13;2.20;;;31.50;1.00;;;;;;5091162;28;20490;-62
2022/08/09 12:18:54;;;;;;;2.30;2.10;;;31.80;1.00;;;;;;5090965;28;20457;-61
2022/08/09 12:21:25;;;;;;;2.00;1.80;;;32.00;1.00;;;;;;5090131;28;20438;-61
2022/08/09 12:23:52;;;;;;;3.10;2.40;;;31.10;1.00;;;;;;5090455;28;20465;-59
2022/08/09 12:26:18;;;;;;;2.50;2.10;;;30.60;1.00;;;;;;5090660;28;20441;-60
2022/08/09 12:28:49;;;;;;;3.23;2.33;;;29.90;1.00;;;;;;5090632;28;20843;-61
2022/08/09 12:31:26;;;;;;;3.67;3.00;;;29.40;1.00;;;;;;5090941;28;20472;-61
2022/08/09 12:33:53;;;;;;;7.30;3.07;;;29.20;1.00;;;;;;5090279;28;20549;-61
2022/08/09 12:36:21;;;;;;;5.50;3.00;;;29.30;1.00;;;;;;5090646;28;20457;-61
2022/08/09 12:38:51;;;;;;;4.63;3.17;;;29.30;1.00;;;;;;5090429;28;20734;-60
2022/08/09 12:41:25;;;;;;;3.03;2.83;;;29.50;1.00;;;;;;5090475;28;20441;-60
2022/08/09 12:43:52;;;;;;;4.33;2.97;;;29.60;1.00;;;;;;5090135;28;20526;-61
2022/08/09 12:46:17;;;;;;;12.77;2.63;;;29.60;1.00;;;;;;5089903;28;20444;-60
2022/08/09 12:48:43;;;;;;;3.50;2.30;;;29.30;1.00;;;;;;5090099;28;20807;-60
2022/08/09 12:51:09;;;;;;;3.90;2.73;;;29.20;1.00;;;;;;5090370;28;20648;-60
2022/08/09 12:53:37;;;;;;;2.70;2.50;;;28.90;1.00;;;;;;5090365;28;20193;-61
2022/08/09 12:56:23;;;;;;;2.70;2.37;;;28.80;1.00;;;;;;5090228;28;20197;-60
2022/08/09 12:59:11;;;;;;;4.90;2.60;;;29.20;1.00;;;;;;5089847;28;20465;-60
2022/08/09 13:01:39;;;;;;;2.57;2.27;;;29.70;1.00;;;;;;5090269;28;20465;-61
2022/08/09 13:04:08;;;;;;;2.10;1.90;;;29.80;1.00;;;;;;5088688;28;20526;-59
2022/08/09 13:06:39;;;;;;;2.37;2.17;;;29.60;1.00;;;;;;5089028;28;20581;-61